Impacts METAR Board
IDs:

KLAX - Los Angeles Intl, CA, US

Updated at: 0700 UTC 24 Jun 2018
Potential Impact None Slight Moderate High
Time 23/19Z 23/20Z 23/21Z 23/22Z 23/23Z 24/00Z 24/01Z 24/02Z 24/03Z 24/04Z 24/05Z 24/06Z 24/07Z
Temp69 68 70 70 70 70 69 67 65 64 65 65 64
Dewpt59 59 58 58 57 57 56 56 56 56 56 56 57
Altim29.88 29.88 29.88 29.87 29.86 29.85 29.83 29.84 29.84 29.86 29.87 29.87 29.88
VIS10 10 10 10 10 10 10 10 10 10 10 10 10
CIG17 17 22 24 25 -- -- -- -- -- 17 18 17
CoverOVCOVCOVCBKNBKNSCTFEWFEWSCTSCTBKNOVCOVC
FltCatMVFRMVFRMVFRMVFRMVFRVFRVFRVFRVFRVFRMVFRMVFRMVFR
WX--------------------------
WDir140150130140160160170140140120160140110
WSpd10 11 10 8 9 13 8 10 9 7 9 8 8
WGst-- 16 -- 17 -- 21 -- -- -- -- 15 -- --
Raw hourly METARs
KLAX 231853Z 14010KT 10SM OVC017 21/15 A2988 RMK AO2 SLP115 T02060150 $
KLAX 231953Z 15011G16KT 10SM OVC017 20/15 A2988 RMK AO2 SLP117 T02000150 $
KLAX 232053Z 13010KT 10SM OVC022 21/14 A2988 RMK AO2 SLP117 T02110144 50005 $
KLAX 232153Z 14008G17KT 10SM FEW021 BKN024 21/14 A2987 RMK AO2 SLP115 T02110144 $
KLAX 232253Z 16009KT 10SM SCT021 BKN025 21/14 A2986 RMK AO2 SLP111 T02110139 $
KLAX 232353Z 16013G21KT 10SM FEW018 SCT022 SCT025 21/14 A2985 RMK AO2 SLP106 T02110139 10217 20200 58010 $
KLAX 240053Z 17008KT 150V210 10SM FEW017 FEW023 21/13 A2983 RMK AO2 SLP100 T02060133 $
KLAX 240153Z 14010KT 10SM FEW017 FEW023 19/13 A2984 RMK AO2 SLP101 T01940133 $
KLAX 240253Z 14009KT 10SM FEW016 FEW022 SCT031 18/13 A2984 RMK AO2 SLP104 T01830133 55003 $
KLAX 240353Z 12007KT 10SM FEW016 SCT020 SCT024 18/13 A2986 RMK AO2 SLP109 T01780133 $
KLAX 240453Z 16009G15KT 10SM BKN017 18/13 A2987 RMK AO2 SLP113 T01830133 $
KLAX 240553Z 14008KT 10SM OVC018 18/13 A2987 RMK AO2 SLP113 T01830133 10211 20178 50010 $
KLAX 240653Z 11008KT 10SM OVC017 18/14 A2988 RMK AO2 SLP115 T01780139 $



Page loaded:  07:11 UTC  |   12:11 AM Pacific  |   01:11 AM Mountain  |   02:11 AM Central  |   03:11 AM Eastern

 

ADVISORIES

FORECASTS

FORECASTS

OBSERVATIONS

USER TOOLS

ABOUT US